Hazen, ND

2:26 PM CDT on June 22, 2017 (GMT -0500)
Mercer County Regional

Weather History for KHZE - April, 2014

Change the Weather History Date:

Sunday, April 20, 2014

  Actual Average (KN60) Record (KN60)
Temperature  
Mean Temperature 52 °F -  
Max Temperature 73 °F 55 °F 73 °F (2014)
Min Temperature 30 °F 30 °F 19 °F (2011)
Degree Days  
Heating Degree Days 14    
Growing Degree Days 2 (Base 50)    
Moisture  
Dew Point 30 °F    
Average Humidity 51    
Maximum Humidity 93    
Minimum Humidity 18    
Precipitation  
Precipitation 0.00 in - - ()
Sea Level Pressure  
Sea Level Pressure 29.93 in    
Wind  
Wind Speed 6 mph (WSW)    
Max Wind Speed 26 mph    
Max Gust Speed 32 mph    
Visibility 10 miles    
Events      
Averages and records for this station are not official NWS values.
T = Trace of Precipitation, MM = Missing Value Source: NWS Daily Summary

Daily Weather History Graph

Daily Weather History Graph

Search for Another Location

Airport or City:

Trip Planner

Search our weather history database for the weather conditions in past years. The results will help you decide how hot, cold, wet, or windy it might be!

Date:

Astronomy

Apr. 20, 2014 Rise Set
Actual Time 6:48 AM CDT 8:42 PM CDT
Civil Twilight 6:16 AM CDT 9:15 PM CDT
Nautical Twilight 5:35 AM CDT 9:55 PM CDT
Astronomical Twilight 4:51 AM CDT 10:40 PM CDT
Moon 1:32 AM CDT (4/20) 11:03 AM CDT (4/20)
Length of Visible Light 14h 59m
Length of Day
13h 53m
Waning Gibbous, 68% of the Moon is Illuminated
Apr 20
Waning Gibbous
Apr 22
Last Quarter
Apr 29
New
May 6
First Quarter
May 14
Full

Hourly Weather History & Observations

Time (CDT) Temp. Windchill Dew Point Humidity Pressure Visibility Wind Dir Wind Speed Gust Speed Precip Events Conditions
12:15 AM 32.0 °F - 28.4 °F 87% 29.97 in 10.0 mi Calm Calm - N/A   Clear
12:35 AM 32.0 °F - 28.4 °F 87% 29.97 in 10.0 mi Calm Calm - N/A   Clear
12:55 AM 32.0 °F - 28.4 °F 87% 29.97 in 10.0 mi Calm Calm - N/A   Clear
1:15 AM 30.2 °F - 28.4 °F 93% 29.97 in 10.0 mi Calm Calm - N/A   Clear
1:35 AM 32.0 °F - 28.4 °F 87% 29.97 in 10.0 mi Calm Calm - N/A   Clear
1:55 AM 32.0 °F - 28.4 °F 87% 29.97 in 10.0 mi Calm Calm - N/A   Clear
2:15 AM 32.0 °F - 28.4 °F 87% 29.97 in 10.0 mi Calm Calm - N/A   Clear
2:35 AM 32.0 °F - 28.4 °F 87% 29.97 in 10.0 mi Calm Calm - N/A   Clear
2:55 AM 32.0 °F 27.5 °F 28.4 °F 87% 29.97 in 10.0 mi East 4.6 mph - N/A   Clear
3:15 AM 33.8 °F 30.8 °F 30.2 °F 87% 29.96 in 10.0 mi NE 3.5 mph - N/A   Clear
3:35 AM 35.6 °F 31.7 °F 30.2 °F 81% 29.96 in 10.0 mi ENE 4.6 mph - N/A   Clear
3:55 AM 35.6 °F - 30.2 °F 81% 29.95 in 10.0 mi Calm Calm - N/A   Clear
4:15 AM 37.4 °F - 32.0 °F 81% 29.95 in 10.0 mi Calm Calm - N/A   Clear
4:35 AM 41.0 °F 38.0 °F 32.0 °F 70% 29.95 in 10.0 mi South 4.6 mph - N/A   Clear
4:55 AM 39.2 °F - 32.0 °F 75% 29.95 in 10.0 mi Calm Calm - N/A   Clear
5:15 AM 35.6 °F - 30.2 °F 81% 29.94 in 10.0 mi Calm Calm - N/A   Clear
5:35 AM 35.6 °F 32.8 °F 30.2 °F 81% 29.94 in 10.0 mi WNW 3.5 mph - N/A   Clear
5:55 AM 35.6 °F - 30.2 °F 81% 29.94 in 10.0 mi Calm Calm - N/A   Partly Cloudy
6:15 AM 37.4 °F - 32.0 °F 81% 29.94 in 10.0 mi Calm Calm - N/A   Partly Cloudy
6:35 AM 32.0 °F - 28.4 °F 87% 29.94 in 10.0 mi Calm Calm - N/A   Clear
6:55 AM 35.6 °F 32.8 °F 32.0 °F 87% 29.94 in 10.0 mi SE 3.5 mph - N/A   Clear
7:15 AM 39.2 °F 34.2 °F 32.0 °F 75% 29.93 in 10.0 mi SE 6.9 mph - N/A   Clear
7:35 AM 39.2 °F - 32.0 °F 75% 29.93 in 10.0 mi Calm Calm - N/A   Clear
7:55 AM 37.4 °F 34.9 °F 32.0 °F 81% 29.93 in 10.0 mi NE 3.5 mph - N/A   Clear
8:15 AM 39.2 °F 37.0 °F 33.8 °F 81% 29.93 in 10.0 mi ENE 3.5 mph - N/A   Clear
8:35 AM 41.0 °F 38.0 °F 37.4 °F 87% 29.92 in 10.0 mi NE 4.6 mph - N/A   Clear
8:55 AM 44.6 °F - 37.4 °F 76% 29.93 in 10.0 mi Calm Calm - N/A   Clear
9:15 AM 50.0 °F - 35.6 °F 58% 29.92 in 10.0 mi South 9.2 mph - N/A   Clear
9:35 AM 53.6 °F - 32.0 °F 44% 29.92 in 10.0 mi SSW 5.8 mph - N/A   Clear
9:55 AM 55.4 °F - 33.8 °F 44% 29.91 in 10.0 mi Calm Calm - N/A   Clear
10:15 AM 59.0 °F - 32.0 °F 36% 29.91 in 10.0 mi SSW 13.8 mph - N/A   Clear
10:35 AM 59.0 °F - 32.0 °F 36% 29.90 in 10.0 mi South 16.1 mph - N/A   Clear
10:55 AM 62.6 °F - 28.4 °F 27% 29.90 in 10.0 mi SSW 12.7 mph - N/A   Clear
11:15 AM 62.6 °F - 30.2 °F 30% 29.89 in 10.0 mi SSW 11.5 mph 20.7 mph N/A   Clear
11:35 AM 64.4 °F - 32.0 °F 30% 29.89 in 10.0 mi South 18.4 mph - N/A   Clear
11:55 AM 66.2 °F - 30.2 °F 26% 29.89 in 10.0 mi SSW 17.3 mph 23.0 mph N/A   Clear
12:15 PM 66.2 °F - 32.0 °F 28% 29.88 in 10.0 mi SSW 16.1 mph 23.0 mph N/A   Clear
12:35 PM 68.0 °F - 32.0 °F 26% 29.87 in 10.0 mi SSW 17.3 mph 21.9 mph N/A   Clear
12:55 PM 69.8 °F - 32.0 °F 25% 29.86 in 10.0 mi South 17.3 mph 24.2 mph N/A   Clear
1:15 PM 69.8 °F - 32.0 °F 25% 29.85 in 10.0 mi South 18.4 mph - N/A   Clear
1:35 PM 71.6 °F - 33.8 °F 25% 29.85 in 10.0 mi SSW 18.4 mph 24.2 mph N/A   Clear
1:55 PM 71.6 °F - 33.8 °F 25% 29.85 in 10.0 mi SW 18.4 mph 27.6 mph N/A   Clear
2:15 PM 73.4 °F - 33.8 °F 23% 29.85 in 10.0 mi SW 20.7 mph 26.5 mph N/A   Clear
2:35 PM 73.4 °F - 35.6 °F 25% 29.84 in 10.0 mi SW 24.2 mph 28.8 mph N/A   Clear
2:55 PM 73.4 °F - 33.8 °F 23% 29.85 in 10.0 mi West 21.9 mph 28.8 mph N/A   Clear
3:15 PM 71.6 °F - 35.6 °F 27% 29.86 in 10.0 mi West 21.9 mph 29.9 mph N/A   Clear
3:35 PM 71.6 °F - 35.6 °F 27% 29.86 in 10.0 mi West 24.2 mph 32.2 mph N/A   Clear
3:55 PM 71.6 °F - 32.0 °F 23% 29.86 in 10.0 mi West 26.5 mph 29.9 mph N/A   Clear
4:15 PM 71.6 °F - 26.6 °F 19% 29.87 in 10.0 mi West 21.9 mph 27.6 mph N/A   Clear
4:35 PM 71.6 °F - 28.4 °F 20% 29.89 in 10.0 mi West 23.0 mph 29.9 mph N/A   Clear
4:55 PM 69.8 °F - 28.4 °F 21% 29.89 in 10.0 mi WNW 17.3 mph 31.1 mph N/A   Clear
5:15 PM 69.8 °F - 28.4 °F 21% 29.89 in 10.0 mi WNW 23.0 mph 27.6 mph N/A   Clear
5:35 PM 68.0 °F - 26.6 °F 21% 29.91 in 10.0 mi WNW 21.9 mph 31.1 mph N/A   Clear
5:55 PM 66.2 °F - 24.8 °F 21% 29.92 in 10.0 mi WNW 19.6 mph 29.9 mph N/A   Clear
6:15 PM 64.4 °F - 24.8 °F 22% 29.92 in 10.0 mi WNW 17.3 mph 24.2 mph N/A   Clear
6:35 PM 68.0 °F - 23.0 °F 18% 29.92 in 10.0 mi WNW 21.9 mph 26.5 mph N/A   Partly Cloudy
6:55 PM 66.2 °F - 21.2 °F 18% 29.93 in 10.0 mi WNW 19.6 mph 26.5 mph N/A   Partly Cloudy
7:15 PM 66.2 °F - 21.2 °F 18% 29.93 in 10.0 mi NW 16.1 mph 28.8 mph N/A   Clear
7:35 PM 64.4 °F - 21.2 °F 19% 29.94 in 10.0 mi NW 20.7 mph 31.1 mph N/A   Clear
7:55 PM 62.6 °F - 23.0 °F 22% 29.95 in 10.0 mi NW 15.0 mph - N/A   Clear
8:15 PM 60.8 °F - 24.8 °F 25% 29.95 in 10.0 mi NW 11.5 mph 24.2 mph N/A   Clear
8:35 PM 57.2 °F - 26.6 °F 31% 29.96 in 10.0 mi NW 9.2 mph - N/A   Clear
8:55 PM 55.4 °F - 26.6 °F 33% 29.97 in 10.0 mi NW 6.9 mph - N/A   Clear
9:15 PM 51.8 °F - 26.6 °F 38% 29.99 in 10.0 mi WNW 5.8 mph - N/A   Clear
9:35 PM 50.0 °F - 26.6 °F 40% 29.99 in 10.0 mi Calm Calm - N/A   Clear
9:55 PM 44.6 °F 42.2 °F 26.6 °F 49% 30.00 in 10.0 mi SW 4.6 mph - N/A   Clear
10:15 PM 39.2 °F 35.9 °F 26.6 °F 61% 30.01 in 10.0 mi SSW 4.6 mph - N/A   Clear
10:35 PM 44.6 °F 39.7 °F 26.6 °F 49% 30.01 in 10.0 mi SW 9.2 mph - N/A   Clear
10:55 PM 44.6 °F 41.4 °F 26.6 °F 49% 30.01 in 10.0 mi SW 5.8 mph - N/A   Clear
11:15 PM 41.0 °F 36.4 °F 26.6 °F 57% 30.02 in 10.0 mi SW 6.9 mph - N/A   Clear
11:35 PM 41.0 °F 37.1 °F 28.4 °F 61% 30.03 in 10.0 mi WSW 5.8 mph - N/A   Clear
11:55 PM 41.0 °F 38.0 °F 26.6 °F 57% 30.03 in 10.0 mi SW 4.6 mph - N/A   Clear